Time;durP1;ratioP1;P1;durP2;ratioP2;P2;SDS_P1;SDS_P2;PMS_P1;PMS_P2;Temp;Humidity;BMP_temperature;BMP_pressure;BME280_temperature;BME280_humidity;BME280_pressure;Samples;Min_cycle;Max_cycle;Signal;HPM_P1;HPM_P2
2023/07/25 00:00:33;;;;;;;7.57;3.55;;;;;;;13.30;100.00;100651.63;5066133;28;20024;-82
2023/07/25 00:02:59;;;;;;;7.25;3.80;;;;;;;13.24;100.00;100638.81;5063360;28;20031;-82
2023/07/25 00:05:24;;;;;;;5.97;3.53;;;;;;;13.21;100.00;100649.81;5056598;28;20033;-82
2023/07/25 00:07:49;;;;;;;6.32;3.55;;;;;;;13.21;100.00;100645.31;5069010;28;20032;-82
2023/07/25 00:10:15;;;;;;;6.97;3.97;;;;;;;13.19;99.75;100649.06;5062951;28;20029;-82
2023/07/25 00:12:40;;;;;;;9.13;3.97;;;;;;;13.16;100.00;100641.38;5053527;28;20411;-82
2023/07/25 00:15:07;;;;;;;7.20;3.70;;;;;;;13.13;100.00;100637.16;5053367;28;20400;-82
2023/07/25 00:17:32;;;;;;;11.02;4.40;;;;;;;13.07;100.00;100649.22;5054267;28;20029;-82
2023/07/25 00:19:57;;;;;;;11.68;4.00;;;;;;;13.05;100.00;100645.00;5053755;28;20039;-82
2023/07/25 00:22:24;;;;;;;5.80;3.72;;;;;;;13.02;100.00;100635.44;5050255;28;20035;-82
2023/07/25 00:24:50;;;;;;;6.80;4.00;;;;;;;12.98;100.00;100643.88;5053045;28;20112;-82
2023/07/25 00:27:15;;;;;;;5.78;4.07;;;;;;;12.97;100.00;100643.03;5049737;28;20073;-82
2023/07/25 00:29:41;;;;;;;10.68;4.18;;;;;;;12.96;100.00;100647.53;5057881;28;20105;-82
2023/07/25 00:32:06;;;;;;;9.10;3.92;;;;;;;12.92;100.00;100643.47;5059079;28;20036;-82
2023/07/25 00:34:32;;;;;;;8.98;4.10;;;;;;;12.88;100.00;100643.88;5056832;28;20029;-82
2023/07/25 00:36:58;;;;;;;12.18;4.22;;;;;;;12.88;100.00;100641.19;5052428;28;20063;-82
2023/07/25 00:39:23;;;;;;;9.60;4.22;;;;;;;12.83;100.00;100632.78;5056243;28;20056;-82
2023/07/25 00:41:48;;;;;;;9.48;4.10;;;;;;;12.80;100.00;100636.53;5057667;28;20021;-82
2023/07/25 00:44:14;;;;;;;8.73;4.30;;;;;;;12.78;100.00;100643.84;5054951;28;20029;-82
2023/07/25 00:46:41;;;;;;;8.52;4.22;;;;;;;12.70;100.00;100638.34;5056878;28;20119;-82
2023/07/25 00:49:06;;;;;;;8.48;4.25;;;;;;;12.72;100.00;100647.91;5049263;28;20026;-82
2023/07/25 00:51:32;;;;;;;10.38;4.40;;;;;;;12.69;100.00;100633.97;5054680;28;20036;-82
2023/07/25 00:53:57;;;;;;;9.45;3.97;;;;;;;12.71;100.00;100646.22;5052534;28;20510;-82
2023/07/25 00:56:23;;;;;;;9.68;4.35;;;;;;;12.73;100.00;100635.41;5054165;28;20029;-82
2023/07/25 00:58:49;;;;;;;7.22;3.83;;;;;;;12.70;100.00;100644.50;5051126;28;20021;-82
2023/07/25 01:01:14;;;;;;;6.05;4.00;;;;;;;12.64;100.00;100631.75;5050647;28;20033;-82
2023/07/25 01:03:40;;;;;;;8.90;4.35;;;;;;;12.68;100.00;100634.97;5054239;28;20513;-82
2023/07/25 01:06:11;;;;;;;7.95;4.72;;;;;;;12.69;100.00;100639.31;5047840;28;20033;-82
2023/07/25 01:09:03;;;;;;;10.02;4.10;;;;;;;12.72;100.00;100636.38;5048923;28;20034;-82
2023/07/25 01:11:28;;;;;;;7.45;4.32;;;;;;;12.66;100.00;100631.63;5051102;28;20035;-82
2023/07/25 01:13:54;;;;;;;11.75;4.72;;;;;;;12.61;100.00;100621.38;5053206;28;20514;-82
2023/07/25 01:16:23;;;;;;;6.88;4.00;;;;;;;12.63;100.00;100629.22;5048971;28;20026;-82
2023/07/25 01:18:50;;;;;;;8.88;4.35;;;;;;;12.63;100.00;100631.88;5049443;28;20036;-82
2023/07/25 01:21:15;;;;;;;8.75;4.35;;;;;;;12.61;100.00;100637.34;5049937;28;20155;-82
2023/07/25 01:23:42;;;;;;;9.85;4.20;;;;;;;12.63;100.00;100630.06;5049613;28;20044;-82
2023/07/25 01:26:07;;;;;;;6.22;4.20;;;;;;;12.61;100.00;100634.69;5046380;28;20061;-82
2023/07/25 01:28:33;;;;;;;7.60;4.35;;;;;;;12.61;100.00;100633.81;5049414;28;20031;-82
2023/07/25 01:30:58;;;;;;;7.80;4.13;;;;;;;12.56;100.00;100624.44;5048934;28;20111;-82
2023/07/25 01:33:24;;;;;;;6.43;3.92;;;;;;;12.54;100.00;100626.38;5050996;28;20416;-82
2023/07/25 01:35:49;;;;;;;7.28;4.15;;;;;;;12.52;100.00;100625.69;5049727;28;20033;-82
2023/07/25 01:38:15;;;;;;;7.90;4.30;;;;;;;12.53;100.00;100623.88;5046498;28;20333;-82
2023/07/25 01:40:41;;;;;;;7.25;4.18;;;;;;;12.52;100.00;100616.84;5045027;28;20105;-82
2023/07/25 01:43:07;;;;;;;7.10;4.30;;;;;;;12.48;100.00;100618.94;5056201;28;20052;-82
2023/07/25 01:45:32;;;;;;;8.50;3.80;;;;;;;12.45;100.00;100616.53;5051347;28;20057;-82
2023/07/25 01:47:59;;;;;;;7.95;4.30;;;;;;;12.48;100.00;100616.28;5058877;28;20025;-82
2023/07/25 01:50:25;;;;;;;8.30;4.20;;;;;;;12.44;100.00;100608.69;5050507;28;20063;-82
2023/07/25 01:52:50;;;;;;;4.82;3.67;;;;;;;12.47;100.00;100614.56;5051926;28;20438;-82
2023/07/25 01:55:15;;;;;;;8.27;4.32;;;;;;;12.49;100.00;100614.44;5050055;28;20115;-82
2023/07/25 01:57:41;;;;;;;7.32;3.78;;;;;;;12.45;100.00;100613.88;5050091;28;20112;-82
2023/07/25 02:00:06;;;;;;;6.60;3.90;;;;;;;12.38;100.00;100610.91;5050613;28;20120;-82
2023/07/25 02:02:32;;;;;;;6.07;4.10;;;;;;;12.38;100.00;100599.41;5050720;28;20052;-82
2023/07/25 02:04:57;;;;;;;7.13;4.18;;;;;;;12.37;100.00;100603.06;5048548;28;20475;-82
2023/07/25 02:07:23;;;;;;;6.55;3.67;;;;;;;12.32;100.00;100602.63;5054585;28;20033;-82
2023/07/25 02:09:48;;;;;;;6.72;4.20;;;;;;;12.31;100.00;100601.78;5050496;28;20045;-82
2023/07/25 02:12:13;;;;;;;7.35;4.10;;;;;;;12.30;100.00;100594.75;5050051;28;20088;-82
2023/07/25 02:14:38;;;;;;;8.27;4.25;;;;;;;12.31;100.00;100604.44;5046264;28;20033;-82
2023/07/25 02:17:05;;;;;;;7.80;3.75;;;;;;;12.28;100.00;100602.03;5052148;28;20498;-82
2023/07/25 02:19:30;;;;;;;9.48;4.53;;;;;;;12.22;100.00;100605.25;5049159;28;20036;-82
2023/07/25 02:21:55;;;;;;;7.57;4.20;;;;;;;12.20;100.00;100596.53;5048618;28;20032;-82
2023/07/25 02:24:21;;;;;;;7.55;4.07;;;;;;;12.22;100.00;100599.91;5045046;28;20032;-82
2023/07/25 02:26:46;;;;;;;6.68;3.90;;;;;;;12.22;100.00;100602.56;5053166;28;20090;-82
2023/07/25 02:29:11;;;;;;;6.35;4.32;;;;;;;12.17;100.00;100592.34;5053679;28;20029;-82
2023/07/25 02:31:37;;;;;;;4.75;4.18;;;;;;;12.22;100.00;100602.56;5049770;28;20098;-82
2023/07/25 02:34:02;;;;;;;6.85;4.57;;;;;;;12.17;100.00;100600.34;5048105;28;20056;-82
2023/07/25 02:36:27;;;;;;;5.55;4.07;;;;;;;12.17;100.00;100596.81;5052820;28;20029;-82
2023/07/25 02:38:53;;;;;;;4.13;3.65;;;;;;;12.14;100.00;100587.28;5053477;28;20025;-82
2023/07/25 02:41:18;;;;;;;8.73;4.35;;;;;;;12.11;100.00;100590.22;5047495;28;20418;-82
2023/07/25 02:43:44;;;;;;;10.02;3.95;;;;;;;12.09;100.00;100596.63;5055774;28;20024;-82
2023/07/25 02:46:09;;;;;;;7.22;3.92;;;;;;;12.09;100.00;100604.63;5052129;28;20482;-82
2023/07/25 02:48:35;;;;;;;8.32;4.68;;;;;;;12.06;100.00;100595.09;5064333;28;20066;-81
2023/07/25 02:51:00;;;;;;;6.47;3.63;;;;;;;12.06;100.00;100596.91;5047303;28;20025;-81
2023/07/25 02:53:25;;;;;;;5.28;3.95;;;;;;;12.02;100.00;100604.31;5044564;28;20444;-82
2023/07/25 02:55:51;;;;;;;7.93;4.28;;;;;;;12.01;100.00;100600.81;5051803;28;20024;-82
2023/07/25 02:58:17;;;;;;;7.30;4.70;;;;;;;12.01;100.00;100589.34;5046412;28;20045;-82
2023/07/25 03:00:42;;;;;;;6.32;4.03;;;;;;;11.96;100.00;100592.38;5051500;28;20058;-82
2023/07/25 03:03:07;;;;;;;9.43;4.30;;;;;;;12.00;100.00;100601.78;5046604;28;20111;-82
2023/07/25 03:05:33;;;;;;;7.88;4.57;;;;;;;12.00;100.00;100603.59;5048166;28;20025;-82
2023/07/25 03:07:58;;;;;;;6.45;4.47;;;;;;;11.95;100.00;100598.69;5064725;28;20017;-82
2023/07/25 03:10:23;;;;;;;9.23;4.65;;;;;;;11.97;100.00;100602.06;5068159;28;20017;-82
2023/07/25 03:12:49;;;;;;;7.78;4.38;;;;;;;11.96;100.00;100599.53;5057329;28;20033;-82
2023/07/25 03:15:14;;;;;;;5.72;4.30;;;;;;;11.99;100.00;100613.41;5057605;28;20032;-82
2023/07/25 03:17:40;;;;;;;6.95;4.47;;;;;;;12.02;100.00;100596.31;5058619;28;20049;-82
2023/07/25 03:20:06;;;;;;;5.63;4.30;;;;;;;12.02;100.00;100589.22;5052209;28;20159;-82
2023/07/25 03:22:32;;;;;;;8.98;4.88;;;;;;;12.03;100.00;100593.53;5051746;28;20045;-82
2023/07/25 03:24:57;;;;;;;5.50;4.30;;;;;;;12.06;100.00;100592.44;5057399;28;20063;-82
2023/07/25 03:27:22;;;;;;;6.65;4.55;;;;;;;12.07;100.00;100587.94;5061119;28;20099;-82
2023/07/25 03:29:48;;;;;;;11.88;4.82;;;;;;;12.10;100.00;100585.03;5061039;28;20025;-81
2023/07/25 03:32:13;;;;;;;8.25;5.75;;;;;;;12.07;100.00;100585.28;5052549;28;20546;-82
2023/07/25 03:34:38;;;;;;;8.75;5.10;;;;;;;12.08;100.00;100584.31;5056645;28;20021;-82
2023/07/25 03:37:04;;;;;;;12.18;5.45;;;;;;;12.09;100.00;100586.84;5054157;28;20097;-82
2023/07/25 03:39:29;;;;;;;6.85;4.45;;;;;;;12.14;100.00;100584.63;5059008;28;20040;-82
2023/07/25 03:41:54;;;;;;;9.38;4.68;;;;;;;12.15;100.00;100585.47;5053508;28;20025;-82
2023/07/25 03:44:20;;;;;;;7.10;4.60;;;;;;;12.14;100.00;100583.75;5056835;28;20040;-82
2023/07/25 03:46:46;;;;;;;8.82;4.97;;;;;;;12.13;100.00;100590.09;5052186;28;20429;-82
2023/07/25 03:49:12;;;;;;;11.25;5.40;;;;;;;12.15;100.00;100588.13;5058611;28;20089;-82
2023/07/25 03:51:37;;;;;;;9.85;5.00;;;;;;;12.16;100.00;100588.00;5059514;28;20418;-82
2023/07/25 03:54:03;;;;;;;11.48;6.00;;;;;;;12.17;100.00;100587.03;5078054;28;20025;-81
2023/07/25 03:56:29;;;;;;;9.15;5.30;;;;;;;12.18;100.00;100585.19;5057822;28;20086;-82
2023/07/25 03:58:54;;;;;;;8.82;5.20;;;;;;;12.16;100.00;100590.66;5056720;28;20460;-82
2023/07/25 04:01:20;;;;;;;14.23;5.78;;;;;;;12.15;100.00;100585.47;5058868;28;20028;-82
2023/07/25 04:03:45;;;;;;;7.25;5.00;;;;;;;12.14;100.00;100589.94;5052142;28;20041;-82
2023/07/25 04:06:10;;;;;;;10.15;5.18;;;;;;;12.17;100.00;100594.16;5055268;28;20110;-82
2023/07/25 04:08:35;;;;;;;9.80;5.03;;;;;;;12.17;100.00;100596.81;5056878;28;20021;-82
2023/07/25 04:11:01;;;;;;;7.18;4.97;;;;;;;12.17;100.00;100596.81;5059926;28;20391;-82
2023/07/25 04:13:26;;;;;;;9.00;5.00;;;;;;;12.15;100.00;100594.28;5057887;28;20028;-82
2023/07/25 04:15:51;;;;;;;6.95;4.70;;;;;;;12.15;100.00;100596.94;5051923;28;20040;-82
2023/07/25 04:18:17;;;;;;;6.90;5.22;;;;;;;12.13;100.00;100596.25;5059463;28;20017;-82
2023/07/25 04:20:42;;;;;;;7.82;5.50;;;;;;;12.14;100.00;100586.44;5060167;28;20041;-82
2023/07/25 04:23:07;;;;;;;11.90;5.43;;;;;;;12.17;100.00;100594.16;5056517;28;20501;-82
2023/07/25 04:25:33;;;;;;;10.57;5.35;;;;;;;12.19;100.00;100595.72;5059126;28;20049;-82
2023/07/25 04:27:58;;;;;;;7.40;4.75;;;;;;;12.15;100.00;100586.28;5059432;28;20037;-82
2023/07/25 04:30:23;;;;;;;9.68;4.85;;;;;;;12.16;100.00;100592.47;5063581;28;20028;-83
2023/07/25 04:32:48;;;;;;;7.07;4.97;;;;;;;12.15;100.00;100602.28;5063293;28;20053;-83
2023/07/25 04:35:14;;;;;;;7.85;5.20;;;;;;;12.17;100.00;100596.81;5059594;28;20029;-83
2023/07/25 04:37:40;;;;;;;10.98;5.20;;;;;;;12.20;100.00;100596.53;5058307;28;20148;-83
2023/07/25 04:40:06;;;;;;;9.00;5.43;;;;;;;12.19;100.00;100592.19;5058742;28;20434;-82
2023/07/25 04:42:31;;;;;;;10.23;5.10;;;;;;;12.21;100.00;100599.06;5059132;28;20021;-82
2023/07/25 04:44:57;;;;;;;12.45;5.90;;;;;;;12.22;100.00;100605.25;5055652;28;20048;-82
2023/07/25 04:47:22;;;;;;;6.65;5.05;;;;;;;12.26;100.00;100606.66;5055237;28;20044;-83
2023/07/25 04:49:47;;;;;;;11.80;5.00;;;;;;;12.28;100.00;100602.03;5057696;28;20025;-82
2023/07/25 04:52:12;;;;;;;8.32;5.07;;;;;;;12.33;100.00;100602.47;5054946;28;20086;-82
2023/07/25 04:54:38;;;;;;;7.25;5.05;;;;;;;12.38;100.00;100596.75;5057292;28;20033;-82
2023/07/25 04:57:03;;;;;;;10.25;5.38;;;;;;;12.40;100.00;100592.97;5060159;28;20024;-82
2023/07/25 04:59:28;;;;;;;13.35;5.47;;;;;;;12.43;100.00;100586.53;5059935;28;20706;-82
2023/07/25 05:01:54;;;;;;;10.25;5.72;;;;;;;12.55;100.00;100589.94;5058548;28;20037;-82
2023/07/25 05:04:19;;;;;;;10.80;6.47;;;;;;;12.59;100.00;100594.84;5056149;28;20085;-82
2023/07/25 05:06:44;;;;;;;10.68;6.35;;;;;;;12.62;100.00;100591.06;5055443;28;20466;-82
2023/07/25 05:09:10;;;;;;;9.65;6.40;;;;;;;12.73;100.00;100598.09;5057818;28;20108;-83
2023/07/25 05:11:35;;;;;;;12.70;6.75;;;;;;;12.78;100.00;100602.03;5060621;28;20428;-83
2023/07/25 05:14:00;;;;;;;8.15;6.65;;;;;;;12.83;100.00;100603.47;5064737;28;20460;-83
2023/07/25 05:16:26;;;;;;;12.27;6.70;;;;;;;12.87;100.00;100605.72;5060477;28;20025;-83
2023/07/25 05:18:51;;;;;;;18.63;6.85;;;;;;;12.89;100.00;100605.53;5062700;28;20036;-83
2023/07/25 05:21:16;;;;;;;14.63;6.28;;;;;;;12.94;100.00;100606.84;5066603;28;20056;-83
2023/07/25 05:23:41;;;;;;;10.48;5.43;;;;;;;13.00;100.00;100605.44;5050607;28;20036;-83
2023/07/25 05:26:07;;;;;;;11.02;6.28;;;;;;;13.04;100.00;100604.19;5054985;28;20060;-83
2023/07/25 05:28:32;;;;;;;9.40;5.40;;;;;;;13.07;100.00;100603.91;5060917;28;20037;-83
2023/07/25 05:30:57;;;;;;;10.13;5.55;;;;;;;13.13;100.00;100597.16;5051616;28;20041;-83
2023/07/25 05:33:23;;;;;;;14.18;6.00;;;;;;;13.18;100.00;100607.41;5059432;28;20025;-83
2023/07/25 05:35:48;;;;;;;13.07;5.68;;;;;;;13.22;100.00;100604.34;5067257;28;20449;-83
2023/07/25 05:38:13;;;;;;;15.10;5.47;;;;;;;13.29;100.00;100609.94;5059099;28;20029;-83
2023/07/25 05:40:38;;;;;;;14.88;5.65;;;;;;;13.33;100.00;100617.53;5059212;28;20491;-83
2023/07/25 05:43:04;;;;;;;9.95;5.32;;;;;;;13.36;100.00;100615.59;5064513;28;20048;-83
2023/07/25 05:45:29;;;;;;;13.30;5.32;;;;;;;13.40;100.00;100612.47;5056082;28;20033;-83
2023/07/25 05:47:54;;;;;;;14.95;4.93;;;;;;;13.47;100.00;100624.28;5056451;28;20382;-83
2023/07/25 05:50:20;;;;;;;9.57;4.95;;;;;;;13.52;100.00;100623.84;5056727;28;20028;-82
2023/07/25 05:52:45;;;;;;;9.50;4.82;;;;;;;13.60;100.00;100623.97;5056314;28;20029;-83
2023/07/25 05:55:10;;;;;;;17.33;5.53;;;;;;;13.64;100.00;100621.88;5051514;28;20051;-82
2023/07/25 05:57:36;;;;;;;10.85;5.10;;;;;;;13.71;100.00;100616.81;5056301;28;20065;-82
2023/07/25 06:00:01;;;;;;;11.93;5.53;;;;;;;13.76;100.00;100615.38;5051841;28;20024;-82
2023/07/25 06:02:26;;;;;;;10.07;4.40;;;;;;;13.82;100.00;100612.13;5066887;28;20363;-82
2023/07/25 06:04:52;;;;;;;9.43;4.55;;;;;;;13.87;100.00;100615.22;5058013;28;20029;-82
2023/07/25 06:07:17;;;;;;;18.63;4.85;;;;;;;13.95;100.00;100619.81;5053079;28;20033;-83
2023/07/25 06:09:42;;;;;;;12.05;4.93;;;;;;;13.95;100.00;100613.63;5063791;28;20028;-84
2023/07/25 06:12:08;;;;;;;10.98;4.55;;;;;;;14.01;100.00;100619.25;5063203;28;20116;-84
2023/07/25 06:14:34;;;;;;;10.88;4.40;;;;;;;14.06;100.00;100608.97;5049957;28;20108;-84
2023/07/25 06:17:00;;;;;;;6.60;4.40;;;;;;;14.08;100.00;100616.81;5067825;28;20025;-84
2023/07/25 06:19:26;;;;;;;5.38;3.83;;;;;;;14.13;100.00;100614.56;5065909;28;20025;-84
2023/07/25 06:21:52;;;;;;;13.32;4.88;;;;;;;14.19;100.00;100613.16;5060838;28;20044;-84
2023/07/25 06:24:17;;;;;;;9.85;3.88;;;;;;;14.30;100.00;100614.78;5049741;28;20033;-84
2023/07/25 06:26:43;;;;;;;7.00;3.90;;;;;;;14.36;100.00;100620.38;5053448;28;20049;-84
2023/07/25 06:29:08;;;;;;;8.32;3.30;;;;;;;14.44;100.00;100633.84;5047855;28;20034;-84
2023/07/25 06:31:35;;;;;;;8.57;3.05;;;;;;;14.51;100.00;100634.09;5049996;28;20386;-83
2023/07/25 06:34:00;;;;;;;11.65;3.78;;;;;;;14.56;100.00;100629.13;5050483;28;20107;-83
2023/07/25 06:36:26;;;;;;;7.63;3.20;;;;;;;14.55;100.00;100629.28;5059336;28;20106;-83
2023/07/25 06:38:51;;;;;;;7.47;3.35;;;;;;;14.68;100.00;100628.97;5056123;28;20507;-83
2023/07/25 06:41:16;;;;;;;7.78;3.42;;;;;;;14.87;100.00;100625.31;5055111;28;20035;-84
2023/07/25 06:43:41;;;;;;;11.00;3.22;;;;;;;15.11;100.00;100632.75;5053196;28;20032;-84
2023/07/25 06:46:07;;;;;;;8.65;2.90;;;;;;;15.39;100.00;100636.19;5052724;28;20079;-84
2023/07/25 06:48:32;;;;;;;8.35;2.95;;;;;;;15.55;97.35;100632.81;5049021;28;20025;-84
2023/07/25 06:50:57;;;;;;;10.05;3.25;;;;;;;15.73;97.14;100627.41;5044065;28;20027;-84
2023/07/25 06:53:23;;;;;;;14.70;3.45;;;;;;;16.01;98.90;100625.47;5052991;28;20047;-83
2023/07/25 06:55:49;;;;;;;9.32;3.50;;;;;;;16.24;96.31;100628.44;5043437;28;20446;-84
2023/07/25 06:58:14;;;;;;;9.10;3.15;;;;;;;16.49;94.61;100627.69;5052854;28;20055;-84
2023/07/25 07:00:39;;;;;;;9.40;3.70;;;;;;;16.63;94.75;100632.44;5054072;28;20364;-83
2023/07/25 07:03:05;;;;;;;12.68;3.72;;;;;;;16.59;90.70;100626.56;5053488;28;20025;-83
2023/07/25 07:05:32;;;;;;;12.25;3.30;;;;;;;16.64;91.74;100628.78;5047615;28;20047;-83
2023/07/25 07:07:58;;;;;;;12.07;3.10;;;;;;;16.72;88.70;100636.84;5053443;28;20085;-84
2023/07/25 07:10:23;;;;;;;7.95;3.30;;;;;;;16.84;88.93;100634.69;5052910;28;20120;-84
2023/07/25 07:12:50;;;;;;;10.40;3.05;;;;;;;17.06;88.55;100645.84;5053298;28;20041;-83
2023/07/25 07:15:15;;;;;;;5.72;2.47;;;;;;;17.08;86.31;100647.34;5051825;28;20033;-83
2023/07/25 07:17:41;;;;;;;11.02;2.80;;;;;;;17.16;87.06;100650.03;5051089;28;20036;-83
2023/07/25 07:20:07;;;;;;;11.52;2.35;;;;;;;17.15;85.71;100652.88;5053051;28;20033;-84
2023/07/25 07:22:33;;;;;;;7.13;2.40;;;;;;;17.13;85.06;100649.53;5045681;28;20030;-83
2023/07/25 07:24:58;;;;;;;8.52;2.17;;;;;;;17.16;86.27;100655.41;5053436;28;20029;-83
2023/07/25 07:27:24;;;;;;;8.27;2.67;;;;;;;17.17;87.31;100641.00;5046977;28;20053;-83
2023/07/25 07:29:52;;;;;;;8.07;2.20;;;;;;;17.17;83.53;100654.41;5052952;28;20414;-83
2023/07/25 07:32:17;;;;;;;10.17;2.50;;;;;;;17.19;84.02;100648.88;5043851;28;20029;-84
2023/07/25 07:34:43;;;;;;;10.23;2.53;;;;;;;17.20;81.75;100653.22;5051595;28;20033;-84
2023/07/25 07:37:08;;;;;;;5.15;1.98;;;;;;;17.15;83.79;100653.75;5062943;28;20039;-84
2023/07/25 07:39:35;;;;;;;5.13;2.25;;;;;;;17.20;82.16;100658.59;5052604;28;20033;-86
2023/07/25 07:42:01;;;;;;;6.05;1.98;;;;;;;17.16;81.25;100651.91;5053857;28;20056;-85
2023/07/25 07:44:26;;;;;;;5.32;1.55;;;;;;;17.13;79.88;100661.09;5050565;28;20037;-86
2023/07/25 07:46:52;;;;;;;8.32;1.90;;;;;;;17.06;82.34;100664.63;5049247;28;20098;-85
2023/07/25 07:49:17;;;;;;;8.23;2.10;;;;;;;17.00;81.27;100669.66;5051845;28;20041;-85
2023/07/25 07:51:42;;;;;;;6.32;1.63;;;;;;;16.95;79.36;100673.81;5036186;28;20017;-85
2023/07/25 07:54:07;;;;;;;7.55;1.95;;;;;;;16.85;78.63;100676.63;5052121;28;20524;-85
2023/07/25 07:56:33;;;;;;;11.18;2.15;;;;;;;16.83;80.59;100686.66;5050934;28;20086;-86
2023/07/25 07:58:58;;;;;;;8.93;1.52;;;;;;;16.76;80.19;100673.06;5045920;28;20107;-86
2023/07/25 08:01:23;;;;;;;5.43;1.42;;;;;;;16.83;78.71;100683.97;5070092;28;20051;-86
2023/07/25 08:03:49;;;;;;;6.82;1.75;;;;;;;16.84;81.60;100677.63;5051919;28;20025;-86
2023/07/25 08:06:14;;;;;;;8.30;1.65;;;;;;;16.90;80.78;100681.50;5046094;28;20021;-85
2023/07/25 08:08:41;;;;;;;8.10;1.80;;;;;;;16.97;79.42;100680.72;5043573;28;20029;-85
2023/07/25 08:11:06;;;;;;;4.78;1.60;;;;;;;17.00;78.21;100682.22;5051910;28;20037;-85
2023/07/25 08:13:31;;;;;;;7.20;1.80;;;;;;;17.15;78.33;100679.72;5051752;28;20182;-86
2023/07/25 08:15:57;;;;;;;6.40;1.77;;;;;;;17.24;78.36;100684.13;5053166;28;20028;-86
2023/07/25 08:18:22;;;;;;;6.15;1.58;;;;;;;17.48;76.39;100690.53;5054855;28;20028;-86
2023/07/25 08:20:52;;;;;;;9.43;1.90;;;;;;;17.65;75.07;100680.63;5053694;28;20043;-86
2023/07/25 08:23:17;;;;;;;6.18;1.70;;;;;;;17.88;75.53;100686.19;5054942;28;20796;-85
2023/07/25 08:25:43;;;;;;;5.47;1.40;;;;;;;18.18;76.16;100687.31;5055043;28;20021;-85
2023/07/25 08:28:09;;;;;;;8.35;1.52;;;;;;;18.44;73.47;100687.09;5049782;28;20065;-86
2023/07/25 08:30:35;;;;;;;6.88;1.42;;;;;;;18.59;73.96;100681.81;5056425;28;20437;-86
2023/07/25 08:33:00;;;;;;;7.70;1.70;;;;;;;18.76;68.33;100687.97;5061855;28;20029;-85
2023/07/25 08:35:25;;;;;;;6.57;1.50;;;;;;;18.98;68.17;100685.53;5055179;28;20060;-86
2023/07/25 08:37:51;;;;;;;6.28;1.65;;;;;;;19.33;68.02;100691.38;5054201;28;20080;-86
2023/07/25 08:40:16;;;;;;;6.00;1.50;;;;;;;19.62;63.69;100696.06;5059658;28;20466;-86
2023/07/25 08:42:43;;;;;;;4.45;1.48;;;;;;;19.92;65.88;100697.00;5059815;28;20547;-86
2023/07/25 08:45:09;;;;;;;9.00;1.80;;;;;;;20.20;62.68;100698.25;5054375;28;20098;-85
2023/07/25 08:47:40;;;;;;;6.90;1.58;;;;;;;20.55;62.93;100696.69;5056867;28;20043;-86
2023/07/25 08:50:11;;;;;;;4.57;1.45;;;;;;;20.72;59.66;100705.47;5042439;28;20522;-85
2023/07/25 08:52:40;;;;;;;2.45;1.20;;;;;;;21.07;57.27;100711.09;5054893;28;20095;-85
2023/07/25 08:55:06;;;;;;;6.35;1.48;;;;;;;21.19;60.01;100704.16;5064161;28;20094;-86
2023/07/25 08:57:31;;;;;;;5.90;1.58;;;;;;;21.19;60.24;100698.75;5050670;28;20456;-86
2023/07/25 08:59:57;;;;;;;7.03;1.58;;;;;;;21.27;58.80;100703.19;5050048;28;20041;-86
2023/07/25 09:02:22;;;;;;;5.90;1.17;;;;;;;21.19;57.72;100703.31;5053596;28;20039;-86
2023/07/25 09:04:48;;;;;;;6.63;1.50;;;;;;;21.50;57.33;100707.59;5052609;28;20028;-86
2023/07/25 09:07:14;;;;;;;6.70;1.52;;;;;;;21.87;57.84;100701.09;5043648;28;20037;-85
2023/07/25 09:09:39;;;;;;;4.63;1.40;;;;;;;22.30;55.78;100706.44;5053815;28;20406;-85
2023/07/25 09:12:07;;;;;;;4.70;1.27;;;;;;;22.11;54.63;100702.50;5054000;28;20033;-85
2023/07/25 09:14:32;;;;;;;7.35;1.25;;;;;;;22.30;54.19;100710.97;5054046;28;20021;-85
2023/07/25 09:16:58;;;;;;;6.80;1.73;;;;;;;22.53;53.63;100695.31;5065467;28;20025;-85
2023/07/25 09:19:23;;;;;;;7.28;1.67;;;;;;;22.45;52.86;100697.34;5063538;28;20064;-86
2023/07/25 09:21:53;;;;;;;5.15;1.55;;;;;;;22.67;57.13;100698.94;5050489;28;20053;-83
2023/07/25 09:24:18;;;;;;;6.32;1.30;;;;;;;22.51;53.07;100710.09;5032873;28;20030;-85
2023/07/25 09:26:49;;;;;;;6.15;1.52;;;;;;;22.45;54.21;100708.16;5051802;28;20045;-85
2023/07/25 09:29:15;;;;;;;5.95;1.45;;;;;;;22.25;54.78;100708.88;5053445;28;20451;-85
2023/07/25 09:31:46;;;;;;;5.57;1.33;;;;;;;21.92;53.21;100711.31;5053162;28;20028;-85
2023/07/25 09:34:17;;;;;;;7.80;1.95;;;;;;;21.74;52.70;100706.38;5051761;28;20483;-85
2023/07/25 09:36:47;;;;;;;3.55;1.40;;;;;;;21.66;55.46;100711.94;5046522;28;20025;-85
2023/07/25 09:39:13;;;;;;;6.05;1.40;;;;;;;21.29;55.80;100711.94;5055110;28;20017;-85
2023/07/25 09:41:38;;;;;;;4.35;1.25;;;;;;;21.15;55.52;100712.81;5055125;28;20032;-85
2023/07/25 09:44:07;;;;;;;4.82;1.38;;;;;;;21.14;56.36;100719.25;5049725;28;20023;-85
2023/07/25 09:46:32;;;;;;;6.53;1.63;;;;;;;21.07;56.62;100727.28;5052463;28;20091;-85
2023/07/25 09:48:57;;;;;;;6.78;1.70;;;;;;;21.34;56.35;100719.47;5048802;28;20667;-85
2023/07/25 09:51:23;;;;;;;6.97;1.35;;;;;;;21.74;56.31;100718.03;5053398;28;20517;-85
2023/07/25 09:53:54;;;;;;;4.57;1.20;;;;;;;22.02;55.59;100722.63;5053745;28;20052;-85
2023/07/25 09:56:24;;;;;;;6.63;1.88;;;;;;;22.40;50.63;100714.19;5057253;28;20078;-85
2023/07/25 09:58:49;;;;;;;7.47;1.60;;;;;;;22.71;49.47;100711.00;5046648;28;20021;-85
2023/07/25 10:01:15;;;;;;;6.38;1.42;;;;;;;22.83;50.98;100710.44;5060998;28;20032;-85
2023/07/25 10:03:45;;;;;;;5.78;1.50;;;;;;;22.64;50.20;100710.16;5063505;28;20032;-85
2023/07/25 10:06:14;;;;;;;4.97;1.63;;;;;;;22.65;51.12;100721.81;5053302;28;20036;-85
2023/07/25 10:08:42;;;;;;;7.45;1.35;;;;;;;22.50;52.87;100711.97;5046535;28;20032;-85
2023/07/25 10:11:08;;;;;;;5.88;1.33;;;;;;;22.55;50.66;100711.38;5048656;28;20071;-85
2023/07/25 10:13:33;;;;;;;4.60;1.38;;;;;;;22.85;50.74;100702.97;5053535;28;20472;-85
2023/07/25 10:16:00;;;;;;;3.28;1.20;;;;;;;23.08;48.43;100708.94;5053136;28;20029;-86
2023/07/25 10:18:27;;;;;;;5.82;1.30;;;;;;;23.44;46.66;100715.88;5052878;28;20033;-84
2023/07/25 10:20:54;;;;;;;5.55;1.45;;;;;;;23.84;47.41;100701.56;5054170;28;20036;-85
2023/07/25 10:23:29;;;;;;;4.38;1.45;;;;;;;24.10;47.69;100699.84;5054758;28;20021;-85
2023/07/25 10:25:55;;;;;;;4.57;1.42;;;;;;;24.17;44.57;100700.72;5053604;28;20037;-85
2023/07/25 10:28:23;;;;;;;4.20;1.20;;;;;;;24.36;43.84;100704.41;5056502;28;20037;-85
2023/07/25 10:30:49;;;;;;;7.10;1.42;;;;;;;24.53;42.75;100707.50;5059915;28;20483;-85
2023/07/25 10:33:16;;;;;;;6.65;1.60;;;;;;;24.81;44.42;100685.50;5055801;28;20033;-85
2023/07/25 10:35:44;;;;;;;13.88;1.80;;;;;;;25.15;44.23;100696.19;5055503;28;20032;-84
2023/07/25 10:38:12;;;;;;;9.13;1.45;;;;;;;25.46;43.10;100692.69;5064777;28;20611;-85
2023/07/25 10:40:55;;;;;;;3.97;1.27;;;;;;;25.33;44.79;100703.66;5050944;28;20033;-84
2023/07/25 10:43:22;;;;;;;3.28;1.15;;;;;;;25.19;45.41;100711.84;5051689;28;20040;-84
2023/07/25 10:45:49;;;;;;;5.45;1.67;;;;;;;24.69;43.63;100707.06;5054143;28;20112;-84
2023/07/25 10:48:31;;;;;;;4.60;1.50;;;;;;;24.63;45.97;100715.22;5052712;28;20512;-85
2023/07/25 10:50:57;;;;;;;5.60;1.50;;;;;;;23.93;45.32;100710.31;5056603;28;20032;-85
2023/07/25 10:53:24;;;;;;;4.28;1.35;;;;;;;23.82;43.87;100709.06;5056594;28;20029;-85
2023/07/25 10:56:08;;;;;;;3.53;1.20;;;;;;;24.12;46.73;100703.22;5048152;28;20013;-85
2023/07/25 10:58:38;;;;;;;5.38;1.38;;;;;;;24.16;45.46;100707.16;5054757;28;20029;-85
2023/07/25 11:01:03;;;;;;;5.35;1.55;;;;;;;24.51;43.46;100715.03;5056750;28;20021;-85
2023/07/25 11:03:31;;;;;;;5.72;1.30;;;;;;;24.56;42.14;100707.13;5054989;28;20107;-85
2023/07/25 11:06:06;;;;;;;3.85;1.20;;;;;;;24.68;44.32;100697.28;5055239;28;20029;-84
2023/07/25 11:08:41;;;;;;;2.80;1.15;;;;;;;24.79;42.61;100695.75;5061697;28;20028;-85
2023/07/25 11:11:25;;;;;;;5.85;1.80;;;;;;;25.15;44.34;100701.63;5060168;28;20398;-85
2023/07/25 11:13:52;;;;;;;5.38;1.50;;;;;;;25.06;41.13;100695.63;5040275;28;20085;-83